sensor_id;sensor_type;location;lat;lon;timestamp;temperature;humidity
949;DHT22;461;51.436;7.312;2023-05-20T00:01:10;14.30;99.90
949;DHT22;461;51.436;7.312;2023-05-20T00:03:43;14.30;99.90
949;DHT22;461;51.436;7.312;2023-05-20T00:06:09;14.20;99.90
949;DHT22;461;51.436;7.312;2023-05-20T00:08:41;14.20;99.90
949;DHT22;461;51.436;7.312;2023-05-20T00:11:19;14.10;99.90
949;DHT22;461;51.436;7.312;2023-05-20T03:02:09;12.20;99.90
949;DHT22;461;51.436;7.312;2023-05-20T03:04:35;12.20;99.90
949;DHT22;461;51.436;7.312;2023-05-20T03:07:05;12.30;99.90
949;DHT22;461;51.436;7.312;2023-05-20T03:09:32;12.30;99.90
949;DHT22;461;51.436;7.312;2023-05-20T03:11:58;12.30;99.90
949;DHT22;461;51.436;7.312;2023-05-20T03:14:23;12.30;99.90
949;DHT22;461;51.436;7.312;2023-05-20T03:16:49;12.20;99.90
949;DHT22;461;51.436;7.312;2023-05-20T03:19:15;12.30;99.90
949;DHT22;461;51.436;7.312;2023-05-20T03:21:41;12.40;99.90
949;DHT22;461;51.436;7.312;2023-05-20T03:24:08;12.30;99.90
949;DHT22;461;51.436;7.312;2023-05-20T03:26:35;12.40;99.90
949;DHT22;461;51.436;7.312;2023-05-20T03:29:04;12.40;99.90
949;DHT22;461;51.436;7.312;2023-05-20T03:31:30;12.40;99.90
949;DHT22;461;51.436;7.312;2023-05-20T03:33:56;12.50;99.90
949;DHT22;461;51.436;7.312;2023-05-20T03:36:21;12.40;99.90
949;DHT22;461;51.436;7.312;2023-05-20T03:38:47;12.40;99.90
949;DHT22;461;51.436;7.312;2023-05-20T03:41:13;12.30;99.90
949;DHT22;461;51.436;7.312;2023-05-20T03:43:39;12.40;99.90
949;DHT22;461;51.436;7.312;2023-05-20T03:46:05;12.30;99.90
949;DHT22;461;51.436;7.312;2023-05-20T03:48:31;12.20;99.90
949;DHT22;461;51.436;7.312;2023-05-20T03:50:56;12.10;99.90
949;DHT22;461;51.436;7.312;2023-05-20T03:53:22;12.10;99.90
949;DHT22;461;51.436;7.312;2023-05-20T03:55:48;12.10;99.90
949;DHT22;461;51.436;7.312;2023-05-20T03:58:14;12.30;99.90
949;DHT22;461;51.436;7.312;2023-05-20T04:00:40;12.40;99.90
949;DHT22;461;51.436;7.312;2023-05-20T04:03:06;12.40;99.90
949;DHT22;461;51.436;7.312;2023-05-20T04:05:32;12.40;99.90
949;DHT22;461;51.436;7.312;2023-05-20T04:07:57;12.40;99.90
949;DHT22;461;51.436;7.312;2023-05-20T04:10:23;12.50;99.90
949;DHT22;461;51.436;7.312;2023-05-20T04:12:49;12.40;99.90
949;DHT22;461;51.436;7.312;2023-05-20T04:15:15;12.50;99.90
949;DHT22;461;51.436;7.312;2023-05-20T04:17:41;12.70;99.90
949;DHT22;461;51.436;7.312;2023-05-20T04:20:08;12.80;99.90
949;DHT22;461;51.436;7.312;2023-05-20T04:22:35;13.00;99.90
949;DHT22;461;51.436;7.312;2023-05-20T04:25:02;13.00;99.90
949;DHT22;461;51.436;7.312;2023-05-20T04:27:30;12.90;99.90
949;DHT22;461;51.436;7.312;2023-05-20T04:29:58;12.90;99.90
949;DHT22;461;51.436;7.312;2023-05-20T04:32:23;12.80;99.90
949;DHT22;461;51.436;7.312;2023-05-20T04:34:49;12.90;99.90
949;DHT22;461;51.436;7.312;2023-05-20T04:37:15;12.90;99.90
949;DHT22;461;51.436;7.312;2023-05-20T04:39:41;12.90;99.90
949;DHT22;461;51.436;7.312;2023-05-20T04:42:08;12.90;99.90
949;DHT22;461;51.436;7.312;2023-05-20T04:44:34;13.00;99.90
949;DHT22;461;51.436;7.312;2023-05-20T04:47:00;13.00;99.90
949;DHT22;461;51.436;7.312;2023-05-20T04:49:25;13.00;99.90
949;DHT22;461;51.436;7.312;2023-05-20T04:51:53;13.00;99.90
949;DHT22;461;51.436;7.312;2023-05-20T04:54:20;13.10;99.90
949;DHT22;461;51.436;7.312;2023-05-20T04:56:46;13.20;99.90
949;DHT22;461;51.436;7.312;2023-05-20T04:59:12;13.30;99.90
949;DHT22;461;51.436;7.312;2023-05-20T05:01:38;13.40;99.90
949;DHT22;461;51.436;7.312;2023-05-20T05:04:04;13.40;99.90
949;DHT22;461;51.436;7.312;2023-05-20T05:06:30;13.60;99.90
949;DHT22;461;51.436;7.312;2023-05-20T05:08:56;13.80;99.90
949;DHT22;461;51.436;7.312;2023-05-20T05:11:22;13.90;99.90
949;DHT22;461;51.436;7.312;2023-05-20T05:13:47;14.00;99.90
949;DHT22;461;51.436;7.312;2023-05-20T05:16:13;13.90;99.90
949;DHT22;461;51.436;7.312;2023-05-20T05:18:39;14.00;99.90
949;DHT22;461;51.436;7.312;2023-05-20T05:21:05;14.20;99.90
949;DHT22;461;51.436;7.312;2023-05-20T05:23:32;14.20;99.90
949;DHT22;461;51.436;7.312;2023-05-20T05:25:57;14.20;99.90
949;DHT22;461;51.436;7.312;2023-05-20T05:28:24;14.30;99.90
949;DHT22;461;51.436;7.312;2023-05-20T05:30:52;14.40;99.90
949;DHT22;461;51.436;7.312;2023-05-20T05:33:18;14.40;99.90
949;DHT22;461;51.436;7.312;2023-05-20T05:35:44;14.40;99.90
949;DHT22;461;51.436;7.312;2023-05-20T05:38:09;14.40;99.90
949;DHT22;461;51.436;7.312;2023-05-20T05:40:35;14.60;99.90
949;DHT22;461;51.436;7.312;2023-05-20T05:43:01;14.60;99.90
949;DHT22;461;51.436;7.312;2023-05-20T05:45:27;14.70;99.90
949;DHT22;461;51.436;7.312;2023-05-20T05:47:53;14.80;99.90
949;DHT22;461;51.436;7.312;2023-05-20T05:50:19;14.90;99.90
949;DHT22;461;51.436;7.312;2023-05-20T05:52:45;14.90;99.90
949;DHT22;461;51.436;7.312;2023-05-20T05:55:11;15.00;99.90
949;DHT22;461;51.436;7.312;2023-05-20T05:57:37;15.20;99.90
949;DHT22;461;51.436;7.312;2023-05-20T06:00:03;15.30;99.90
949;DHT22;461;51.436;7.312;2023-05-20T06:02:29;15.30;99.90
949;DHT22;461;51.436;7.312;2023-05-20T06:04:55;15.20;99.90
949;DHT22;461;51.436;7.312;2023-05-20T06:07:22;15.40;99.90
949;DHT22;461;51.436;7.312;2023-05-20T06:09:48;15.40;99.90
949;DHT22;461;51.436;7.312;2023-05-20T06:12:14;15.40;99.90
949;DHT22;461;51.436;7.312;2023-05-20T06:14:39;15.40;99.90
949;DHT22;461;51.436;7.312;2023-05-20T06:17:05;15.30;99.90
949;DHT22;461;51.436;7.312;2023-05-20T06:19:31;15.30;99.90
949;DHT22;461;51.436;7.312;2023-05-20T06:21:57;15.30;99.90
949;DHT22;461;51.436;7.312;2023-05-20T06:24:23;15.40;99.90
949;DHT22;461;51.436;7.312;2023-05-20T06:26:49;15.70;99.90
949;DHT22;461;51.436;7.312;2023-05-20T06:29:15;15.70;99.90
949;DHT22;461;51.436;7.312;2023-05-20T06:31:41;15.80;99.90
949;DHT22;461;51.436;7.312;2023-05-20T06:34:07;15.90;99.90
949;DHT22;461;51.436;7.312;2023-05-20T06:36:32;15.90;99.90
949;DHT22;461;51.436;7.312;2023-05-20T06:38:58;15.90;99.90
949;DHT22;461;51.436;7.312;2023-05-20T06:41:24;15.90;99.90
949;DHT22;461;51.436;7.312;2023-05-20T06:43:51;15.90;99.90
949;DHT22;461;51.436;7.312;2023-05-20T06:46:16;15.90;99.90
949;DHT22;461;51.436;7.312;2023-05-20T06:48:42;15.90;99.90
949;DHT22;461;51.436;7.312;2023-05-20T06:51:08;15.90;99.90
949;DHT22;461;51.436;7.312;2023-05-20T06:53:34;15.80;99.90
949;DHT22;461;51.436;7.312;2023-05-20T06:56:00;15.80;99.90
949;DHT22;461;51.436;7.312;2023-05-20T06:58:27;15.80;99.90
949;DHT22;461;51.436;7.312;2023-05-20T07:00:53;15.90;99.90
949;DHT22;461;51.436;7.312;2023-05-20T07:03:19;15.70;99.90
949;DHT22;461;51.436;7.312;2023-05-20T07:05:44;15.70;99.90
949;DHT22;461;51.436;7.312;2023-05-20T07:08:10;15.70;99.90
949;DHT22;461;51.436;7.312;2023-05-20T07:10:36;15.70;99.90
949;DHT22;461;51.436;7.312;2023-05-20T07:13:02;15.70;99.90
949;DHT22;461;51.436;7.312;2023-05-20T07:15:28;15.70;99.90
949;DHT22;461;51.436;7.312;2023-05-20T07:17:53;15.80;99.90
949;DHT22;461;51.436;7.312;2023-05-20T07:20:19;15.90;99.90
949;DHT22;461;51.436;7.312;2023-05-20T07:22:45;15.60;99.90
949;DHT22;461;51.436;7.312;2023-05-20T07:25:13;15.60;99.90
949;DHT22;461;51.436;7.312;2023-05-20T07:27:38;15.50;99.90
949;DHT22;461;51.436;7.312;2023-05-20T07:30:05;15.70;99.90
949;DHT22;461;51.436;7.312;2023-05-20T07:32:31;15.80;99.90
949;DHT22;461;51.436;7.312;2023-05-20T07:34:56;15.80;99.90
949;DHT22;461;51.436;7.312;2023-05-20T07:37:22;15.90;99.90
949;DHT22;461;51.436;7.312;2023-05-20T07:39:48;16.00;99.90
949;DHT22;461;51.436;7.312;2023-05-20T07:42:14;15.90;99.90
949;DHT22;461;51.436;7.312;2023-05-20T07:44:40;15.80;99.90
949;DHT22;461;51.436;7.312;2023-05-20T07:47:05;15.80;99.90
949;DHT22;461;51.436;7.312;2023-05-20T07:49:31;15.80;99.90
949;DHT22;461;51.436;7.312;2023-05-20T07:51:57;15.90;99.90
949;DHT22;461;51.436;7.312;2023-05-20T07:54:23;16.10;99.90
949;DHT22;461;51.436;7.312;2023-05-20T07:56:48;16.10;99.90
949;DHT22;461;51.436;7.312;2023-05-20T07:59:14;16.20;99.90
949;DHT22;461;51.436;7.312;2023-05-20T08:01:41;16.10;99.90
949;DHT22;461;51.436;7.312;2023-05-20T08:04:07;16.10;99.90
949;DHT22;461;51.436;7.312;2023-05-20T08:06:33;16.20;99.90
949;DHT22;461;51.436;7.312;2023-05-20T08:09:00;16.10;99.90
949;DHT22;461;51.436;7.312;2023-05-20T08:11:26;16.10;99.90
949;DHT22;461;51.436;7.312;2023-05-20T08:13:52;16.20;99.90
949;DHT22;461;51.436;7.312;2023-05-20T08:16:19;16.30;99.90
949;DHT22;461;51.436;7.312;2023-05-20T08:18:45;16.30;99.90
949;DHT22;461;51.436;7.312;2023-05-20T08:21:11;16.20;99.90
949;DHT22;461;51.436;7.312;2023-05-20T08:23:37;16.10;99.90
949;DHT22;461;51.436;7.312;2023-05-20T08:26:02;16.00;99.90
949;DHT22;461;51.436;7.312;2023-05-20T08:28:31;16.10;99.90
949;DHT22;461;51.436;7.312;2023-05-20T08:31:00;16.10;99.90
949;DHT22;461;51.436;7.312;2023-05-20T08:33:25;16.20;99.90
949;DHT22;461;51.436;7.312;2023-05-20T08:35:52;16.40;99.90
949;DHT22;461;51.436;7.312;2023-05-20T08:38:17;16.50;99.90
949;DHT22;461;51.436;7.312;2023-05-20T08:40:43;16.60;99.90
949;DHT22;461;51.436;7.312;2023-05-20T08:43:09;16.80;99.90
949;DHT22;461;51.436;7.312;2023-05-20T08:45:37;16.80;99.90
949;DHT22;461;51.436;7.312;2023-05-20T08:48:03;16.80;99.90
949;DHT22;461;51.436;7.312;2023-05-20T08:50:32;16.80;99.90
949;DHT22;461;51.436;7.312;2023-05-20T08:52:58;16.90;99.90
949;DHT22;461;51.436;7.312;2023-05-20T08:55:46;16.90;99.90
949;DHT22;461;51.436;7.312;2023-05-20T08:58:14;16.90;99.90
949;DHT22;461;51.436;7.312;2023-05-20T09:00:40;16.80;99.90
949;DHT22;461;51.436;7.312;2023-05-20T09:03:06;16.60;99.90
949;DHT22;461;51.436;7.312;2023-05-20T09:05:33;16.50;99.90
949;DHT22;461;51.436;7.312;2023-05-20T09:08:09;16.60;99.90
949;DHT22;461;51.436;7.312;2023-05-20T09:10:37;16.60;99.90
949;DHT22;461;51.436;7.312;2023-05-20T09:13:05;16.50;99.90
949;DHT22;461;51.436;7.312;2023-05-20T09:15:32;16.60;99.90
949;DHT22;461;51.436;7.312;2023-05-20T09:18:06;16.50;99.90
949;DHT22;461;51.436;7.312;2023-05-20T09:20:36;16.60;99.90
949;DHT22;461;51.436;7.312;2023-05-20T09:23:04;16.90;99.90
949;DHT22;461;51.436;7.312;2023-05-20T09:25:30;16.90;99.90
949;DHT22;461;51.436;7.312;2023-05-20T09:27:56;17.00;99.90
949;DHT22;461;51.436;7.312;2023-05-20T09:30:22;17.10;99.90
949;DHT22;461;51.436;7.312;2023-05-20T09:32:59;17.00;99.90
949;DHT22;461;51.436;7.312;2023-05-20T09:35:26;17.00;99.90
949;DHT22;461;51.436;7.312;2023-05-20T09:37:53;17.00;99.90
949;DHT22;461;51.436;7.312;2023-05-20T09:40:27;16.90;99.90
949;DHT22;461;51.436;7.312;2023-05-20T09:45:20;16.90;99.90
949;DHT22;461;51.436;7.312;2023-05-20T09:47:47;17.00;99.90
949;DHT22;461;51.436;7.312;2023-05-20T09:50:14;17.00;99.90
949;DHT22;461;51.436;7.312;2023-05-20T09:52:42;17.00;99.90
949;DHT22;461;51.436;7.312;2023-05-20T09:55:09;17.10;99.90
949;DHT22;461;51.436;7.312;2023-05-20T09:57:36;17.10;99.90
949;DHT22;461;51.436;7.312;2023-05-20T10:00:04;17.20;99.90
949;DHT22;461;51.436;7.312;2023-05-20T10:02:32;17.20;99.90
949;DHT22;461;51.436;7.312;2023-05-20T10:05:01;17.20;99.90
949;DHT22;461;51.436;7.312;2023-05-20T10:16:12;16.90;99.90
949;DHT22;461;51.436;7.312;2023-05-20T10:21:36;17.20;99.90
949;DHT22;461;51.436;7.312;2023-05-20T10:24:09;17.10;99.90
949;DHT22;461;51.436;7.312;2023-05-20T10:26:36;17.20;99.90
949;DHT22;461;51.436;7.312;2023-05-20T10:29:16;17.20;99.90
949;DHT22;461;51.436;7.312;2023-05-20T10:31:50;17.20;99.90
949;DHT22;461;51.436;7.312;2023-05-20T10:34:17;17.40;99.90
949;DHT22;461;51.436;7.312;2023-05-20T10:39:25;17.50;99.90
949;DHT22;461;51.436;7.312;2023-05-20T10:41:51;17.50;99.90
949;DHT22;461;51.436;7.312;2023-05-20T10:44:17;17.70;99.90
949;DHT22;461;51.436;7.312;2023-05-20T10:46:43;17.70;99.90
949;DHT22;461;51.436;7.312;2023-05-20T10:49:18;17.90;99.90
949;DHT22;461;51.436;7.312;2023-05-20T10:51:45;18.10;99.90
949;DHT22;461;51.436;7.312;2023-05-20T10:54:12;18.10;99.90
949;DHT22;461;51.436;7.312;2023-05-20T10:56:39;18.30;99.90
949;DHT22;461;51.436;7.312;2023-05-20T11:01:41;18.40;99.90
949;DHT22;461;51.436;7.312;2023-05-20T19:27:40;18.50;99.90
949;DHT22;461;51.436;7.312;2023-05-20T19:30:06;17.20;99.90
949;DHT22;461;51.436;7.312;2023-05-20T19:32:32;17.20;99.90
949;DHT22;461;51.436;7.312;2023-05-20T19:34:57;17.10;99.90
949;DHT22;461;51.436;7.312;2023-05-20T19:42:15;17.10;99.90
949;DHT22;461;51.436;7.312;2023-05-20T19:44:41;17.00;99.90
949;DHT22;461;51.436;7.312;2023-05-20T19:47:07;17.10;99.90
949;DHT22;461;51.436;7.312;2023-05-20T19:49:33;17.10;99.90
949;DHT22;461;51.436;7.312;2023-05-20T19:52:00;17.10;99.90
949;DHT22;461;51.436;7.312;2023-05-20T19:54:32;17.00;99.90
949;DHT22;461;51.436;7.312;2023-05-20T19:56:58;16.90;99.90
949;DHT22;461;51.436;7.312;2023-05-20T19:59:28;16.90;99.90
949;DHT22;461;51.436;7.312;2023-05-20T20:02:00;16.90;99.90
949;DHT22;461;51.436;7.312;2023-05-20T20:04:48;16.80;99.90
949;DHT22;461;51.436;7.312;2023-05-20T20:07:16;16.90;99.90
949;DHT22;461;51.436;7.312;2023-05-20T20:09:42;16.90;99.90
949;DHT22;461;51.436;7.312;2023-05-20T20:12:12;16.90;99.90
949;DHT22;461;51.436;7.312;2023-05-20T20:14:38;16.90;99.90
949;DHT22;461;51.436;7.312;2023-05-20T20:22:28;16.70;99.90
949;DHT22;461;51.436;7.312;2023-05-20T20:25:03;16.80;99.90
949;DHT22;461;51.436;7.312;2023-05-20T20:27:38;16.70;99.90
949;DHT22;461;51.436;7.312;2023-05-20T20:30:11;16.70;99.90
949;DHT22;461;51.436;7.312;2023-05-20T20:32:46;16.80;99.90
949;DHT22;461;51.436;7.312;2023-05-20T20:35:15;16.80;99.90
949;DHT22;461;51.436;7.312;2023-05-20T20:38:13;16.60;99.90
949;DHT22;461;51.436;7.312;2023-05-20T20:40:40;16.60;99.90
949;DHT22;461;51.436;7.312;2023-05-20T20:43:09;16.50;99.90
949;DHT22;461;51.436;7.312;2023-05-20T20:45:43;16.60;99.90
949;DHT22;461;51.436;7.312;2023-05-20T20:48:11;16.60;99.90
949;DHT22;461;51.436;7.312;2023-05-20T20:50:42;16.60;99.90
949;DHT22;461;51.436;7.312;2023-05-20T20:53:11;16.60;99.90
949;DHT22;461;51.436;7.312;2023-05-20T20:55:44;16.50;99.90
949;DHT22;461;51.436;7.312;2023-05-20T20:58:17;16.40;99.90
949;DHT22;461;51.436;7.312;2023-05-20T21:00:51;16.30;99.90
949;DHT22;461;51.436;7.312;2023-05-20T21:03:39;16.30;99.90
949;DHT22;461;51.436;7.312;2023-05-20T21:06:26;16.40;99.90
949;DHT22;461;51.436;7.312;2023-05-20T21:08:56;16.40;99.90
949;DHT22;461;51.436;7.312;2023-05-20T21:11:25;16.40;99.90
949;DHT22;461;51.436;7.312;2023-05-20T21:13:57;16.50;99.90
949;DHT22;461;51.436;7.312;2023-05-20T21:16:26;16.50;99.90
949;DHT22;461;51.436;7.312;2023-05-20T21:18:55;16.50;99.90
949;DHT22;461;51.436;7.312;2023-05-20T21:21:23;16.50;99.90
949;DHT22;461;51.436;7.312;2023-05-20T21:23:49;16.50;99.90
949;DHT22;461;51.436;7.312;2023-05-20T21:26:16;16.40;99.90
949;DHT22;461;51.436;7.312;2023-05-20T21:28:42;16.50;99.90
949;DHT22;461;51.436;7.312;2023-05-20T21:31:08;16.50;99.90
949;DHT22;461;51.436;7.312;2023-05-20T21:33:34;16.40;99.90
949;DHT22;461;51.436;7.312;2023-05-20T21:36:00;16.30;99.90
949;DHT22;461;51.436;7.312;2023-05-20T21:38:26;16.20;99.90
949;DHT22;461;51.436;7.312;2023-05-20T21:40:52;16.20;99.90
949;DHT22;461;51.436;7.312;2023-05-20T21:43:17;16.20;99.90
949;DHT22;461;51.436;7.312;2023-05-20T21:45:50;16.40;99.90
949;DHT22;461;51.436;7.312;2023-05-20T21:48:25;16.30;99.90
949;DHT22;461;51.436;7.312;2023-05-20T21:50:51;16.30;99.90
949;DHT22;461;51.436;7.312;2023-05-20T21:53:17;16.30;99.90
949;DHT22;461;51.436;7.312;2023-05-20T21:55:58;16.30;99.90
949;DHT22;461;51.436;7.312;2023-05-20T21:58:29;16.20;99.90
949;DHT22;461;51.436;7.312;2023-05-20T22:01:01;16.30;99.90
949;DHT22;461;51.436;7.312;2023-05-20T22:03:26;16.20;99.90
949;DHT22;461;51.436;7.312;2023-05-20T22:05:54;16.20;99.90
949;DHT22;461;51.436;7.312;2023-05-20T22:08:25;16.10;99.90
949;DHT22;461;51.436;7.312;2023-05-20T22:11:03;16.10;99.90
949;DHT22;461;51.436;7.312;2023-05-20T22:13:40;16.20;99.90
949;DHT22;461;51.436;7.312;2023-05-20T22:16:07;16.20;99.90
949;DHT22;461;51.436;7.312;2023-05-20T22:18:34;16.20;99.90
949;DHT22;461;51.436;7.312;2023-05-20T22:21:04;16.30;99.90
949;DHT22;461;51.436;7.312;2023-05-20T22:23:30;16.30;99.90
949;DHT22;461;51.436;7.312;2023-05-20T22:25:56;16.40;99.90
949;DHT22;461;51.436;7.312;2023-05-20T22:28:21;16.30;99.90
949;DHT22;461;51.436;7.312;2023-05-20T22:30:48;16.20;99.90
949;DHT22;461;51.436;7.312;2023-05-20T22:33:13;16.20;99.90
949;DHT22;461;51.436;7.312;2023-05-20T22:35:39;16.20;99.90
949;DHT22;461;51.436;7.312;2023-05-20T22:38:05;16.20;99.90
949;DHT22;461;51.436;7.312;2023-05-20T22:40:50;16.20;99.90
949;DHT22;461;51.436;7.312;2023-05-20T22:43:16;16.10;99.90
949;DHT22;461;51.436;7.312;2023-05-20T22:45:42;16.10;99.90
949;DHT22;461;51.436;7.312;2023-05-20T22:48:07;16.00;99.90
949;DHT22;461;51.436;7.312;2023-05-20T22:50:33;15.90;99.90
949;DHT22;461;51.436;7.312;2023-05-20T22:53:02;15.90;99.90
949;DHT22;461;51.436;7.312;2023-05-20T22:55:30;15.80;99.90
949;DHT22;461;51.436;7.312;2023-05-20T22:57:56;15.90;99.90
949;DHT22;461;51.436;7.312;2023-05-20T23:00:23;16.00;99.90
949;DHT22;461;51.436;7.312;2023-05-20T23:02:53;16.00;99.90
949;DHT22;461;51.436;7.312;2023-05-20T23:05:20;15.90;99.90
949;DHT22;461;51.436;7.312;2023-05-20T23:07:46;15.80;99.90
949;DHT22;461;51.436;7.312;2023-05-20T23:10:12;15.70;99.90
949;DHT22;461;51.436;7.312;2023-05-20T23:12:38;15.80;99.90
949;DHT22;461;51.436;7.312;2023-05-20T23:15:04;15.70;99.90
949;DHT22;461;51.436;7.312;2023-05-20T23:17:30;15.70;99.90
949;DHT22;461;51.436;7.312;2023-05-20T23:19:56;15.60;99.90
949;DHT22;461;51.436;7.312;2023-05-20T23:22:21;15.60;99.90
949;DHT22;461;51.436;7.312;2023-05-20T23:24:47;15.50;99.90
949;DHT22;461;51.436;7.312;2023-05-20T23:27:13;15.50;99.90
949;DHT22;461;51.436;7.312;2023-05-20T23:29:39;15.50;99.90
949;DHT22;461;51.436;7.312;2023-05-20T23:39:51;15.30;99.90
949;DHT22;461;51.436;7.312;2023-05-20T23:56:31;15.20;99.90
949;DHT22;461;51.436;7.312;2023-05-20T23:59:25;15.20;99.90
